sensor_id;sensor_type;location;lat;lon;timestamp;temperature;humidity
44117;DHT22;29781;49.480;8.512;2022-12-18T00:02:04;-7.20;99.90
44117;DHT22;29781;49.480;8.512;2022-12-18T00:04:29;-7.20;99.90
44117;DHT22;29781;49.480;8.512;2022-12-18T00:06:55;-7.30;99.90
44117;DHT22;29781;49.480;8.512;2022-12-18T00:09:20;-7.30;99.90
44117;DHT22;29781;49.480;8.512;2022-12-18T00:11:46;-7.40;99.90
44117;DHT22;29781;49.480;8.512;2022-12-18T00:14:12;-7.40;99.90
44117;DHT22;29781;49.480;8.512;2022-12-18T00:16:38;-7.50;99.90
44117;DHT22;29781;49.480;8.512;2022-12-18T00:19:04;-7.40;99.90
44117;DHT22;29781;49.480;8.512;2022-12-18T00:21:30;-7.50;99.90
44117;DHT22;29781;49.480;8.512;2022-12-18T00:23:56;-7.60;99.90
44117;DHT22;29781;49.480;8.512;2022-12-18T00:26:22;-7.60;99.90
44117;DHT22;29781;49.480;8.512;2022-12-18T00:28:48;-7.60;99.90
44117;DHT22;29781;49.480;8.512;2022-12-18T00:31:15;-7.50;99.90
44117;DHT22;29781;49.480;8.512;2022-12-18T00:33:41;-7.50;99.90
44117;DHT22;29781;49.480;8.512;2022-12-18T00:36:09;-7.50;99.90
44117;DHT22;29781;49.480;8.512;2022-12-18T00:38:35;-7.60;99.90
44117;DHT22;29781;49.480;8.512;2022-12-18T00:41:01;-7.80;99.90
44117;DHT22;29781;49.480;8.512;2022-12-18T00:43:26;-7.70;99.90
44117;DHT22;29781;49.480;8.512;2022-12-18T00:45:52;-7.70;99.90
44117;DHT22;29781;49.480;8.512;2022-12-18T00:48:17;-7.70;99.90
44117;DHT22;29781;49.480;8.512;2022-12-18T00:50:43;-7.60;99.90
44117;DHT22;29781;49.480;8.512;2022-12-18T00:53:08;-7.50;99.90
44117;DHT22;29781;49.480;8.512;2022-12-18T00:55:34;-7.50;99.90
44117;DHT22;29781;49.480;8.512;2022-12-18T00:57:59;-7.60;99.90
44117;DHT22;29781;49.480;8.512;2022-12-18T01:00:25;-7.50;99.90
44117;DHT22;29781;49.480;8.512;2022-12-18T01:02:50;-7.40;99.90
44117;DHT22;29781;49.480;8.512;2022-12-18T01:05:16;-7.60;99.90
44117;DHT22;29781;49.480;8.512;2022-12-18T01:07:42;-7.70;99.90
44117;DHT22;29781;49.480;8.512;2022-12-18T01:10:07;-8.00;99.90
44117;DHT22;29781;49.480;8.512;2022-12-18T01:12:33;-8.20;99.90
44117;DHT22;29781;49.480;8.512;2022-12-18T01:14:59;-8.30;99.90
44117;DHT22;29781;49.480;8.512;2022-12-18T01:17:24;-8.40;99.90
44117;DHT22;29781;49.480;8.512;2022-12-18T01:19:50;-8.30;99.90
44117;DHT22;29781;49.480;8.512;2022-12-18T01:22:15;-8.20;99.90
44117;DHT22;29781;49.480;8.512;2022-12-18T01:24:41;-8.20;99.90
44117;DHT22;29781;49.480;8.512;2022-12-18T01:27:07;-8.00;99.90
44117;DHT22;29781;49.480;8.512;2022-12-18T01:29:32;-8.00;99.90
44117;DHT22;29781;49.480;8.512;2022-12-18T01:31:58;-7.90;99.90
44117;DHT22;29781;49.480;8.512;2022-12-18T01:34:23;-7.90;99.90
44117;DHT22;29781;49.480;8.512;2022-12-18T01:36:49;-7.80;99.90
44117;DHT22;29781;49.480;8.512;2022-12-18T01:39:17;-8.00;99.90
44117;DHT22;29781;49.480;8.512;2022-12-18T01:41:43;-8.00;99.90
44117;DHT22;29781;49.480;8.512;2022-12-18T01:47:14;-7.70;99.90
44117;DHT22;29781;49.480;8.512;2022-12-18T01:49:40;-7.50;99.90
44117;DHT22;29781;49.480;8.512;2022-12-18T01:52:07;-7.40;99.90
44117;DHT22;29781;49.480;8.512;2022-12-18T01:54:32;-7.30;99.90
44117;DHT22;29781;49.480;8.512;2022-12-18T01:56:58;-7.20;99.90
44117;DHT22;29781;49.480;8.512;2022-12-18T01:59:24;-7.70;99.90
44117;DHT22;29781;49.480;8.512;2022-12-18T02:01:49;-7.70;99.90
44117;DHT22;29781;49.480;8.512;2022-12-18T02:04:22;-7.90;99.90
44117;DHT22;29781;49.480;8.512;2022-12-18T02:06:49;-8.00;99.90
44117;DHT22;29781;49.480;8.512;2022-12-18T02:09:21;-8.10;99.90
44117;DHT22;29781;49.480;8.512;2022-12-18T02:11:53;-8.20;99.90
44117;DHT22;29781;49.480;8.512;2022-12-18T02:14:28;-8.20;99.90
44117;DHT22;29781;49.480;8.512;2022-12-18T02:22:10;-8.20;99.90
44117;DHT22;29781;49.480;8.512;2022-12-18T02:24:41;-8.20;99.90
44117;DHT22;29781;49.480;8.512;2022-12-18T02:27:08;-8.10;99.90
44117;DHT22;29781;49.480;8.512;2022-12-18T02:32:00;-8.10;99.90
44117;DHT22;29781;49.480;8.512;2022-12-18T02:34:28;-8.20;99.90
44117;DHT22;29781;49.480;8.512;2022-12-18T02:36:54;-8.20;99.90
44117;DHT22;29781;49.480;8.512;2022-12-18T02:39:20;-8.10;99.90
44117;DHT22;29781;49.480;8.512;2022-12-18T02:41:47;-7.80;99.90
44117;DHT22;29781;49.480;8.512;2022-12-18T02:44:13;-7.50;99.90
44117;DHT22;29781;49.480;8.512;2022-12-18T02:46:45;-7.40;99.90
44117;DHT22;29781;49.480;8.512;2022-12-18T02:49:21;-7.60;99.90
44117;DHT22;29781;49.480;8.512;2022-12-18T02:52:05;-7.70;99.90
44117;DHT22;29781;49.480;8.512;2022-12-18T02:59:54;-7.30;99.90
44117;DHT22;29781;49.480;8.512;2022-12-18T03:02:26;-7.50;99.90
44117;DHT22;29781;49.480;8.512;2022-12-18T03:07:36;-7.40;99.90
44117;DHT22;29781;49.480;8.512;2022-12-18T03:10:03;-7.10;99.90
44117;DHT22;29781;49.480;8.512;2022-12-18T03:12:30;-7.10;99.90
44117;DHT22;29781;49.480;8.512;2022-12-18T03:15:02;-7.20;99.90
44117;DHT22;29781;49.480;8.512;2022-12-18T03:17:29;-7.10;99.90
44117;DHT22;29781;49.480;8.512;2022-12-18T03:19:56;-7.00;99.90
44117;DHT22;29781;49.480;8.512;2022-12-18T03:22:23;-6.90;99.90
44117;DHT22;29781;49.480;8.512;2022-12-18T03:24:50;-7.50;99.90
44117;DHT22;29781;49.480;8.512;2022-12-18T03:27:17;-8.00;99.90
44117;DHT22;29781;49.480;8.512;2022-12-18T03:29:51;-8.30;99.90
44117;DHT22;29781;49.480;8.512;2022-12-18T03:32:27;-8.40;99.90
44117;DHT22;29781;49.480;8.512;2022-12-18T03:34:54;-8.40;99.90
44117;DHT22;29781;49.480;8.512;2022-12-18T03:37:20;-8.20;99.90
44117;DHT22;29781;49.480;8.512;2022-12-18T03:39:46;-8.20;99.90
44117;DHT22;29781;49.480;8.512;2022-12-18T03:47:24;-8.70;99.90
44117;DHT22;29781;49.480;8.512;2022-12-18T03:50:00;-8.80;99.90
44117;DHT22;29781;49.480;8.512;2022-12-18T03:52:28;-8.80;99.90
44117;DHT22;29781;49.480;8.512;2022-12-18T03:54:55;-8.80;99.90
44117;DHT22;29781;49.480;8.512;2022-12-18T03:57:23;-8.80;99.90
44117;DHT22;29781;49.480;8.512;2022-12-18T03:59:51;-8.80;99.90
44117;DHT22;29781;49.480;8.512;2022-12-18T04:02:18;-8.80;99.90
44117;DHT22;29781;49.480;8.512;2022-12-18T04:04:44;-8.70;99.90
44117;DHT22;29781;49.480;8.512;2022-12-18T04:07:12;-8.60;99.90
44117;DHT22;29781;49.480;8.512;2022-12-18T04:09:38;-8.70;99.90
44117;DHT22;29781;49.480;8.512;2022-12-18T04:12:04;-8.60;99.90
44117;DHT22;29781;49.480;8.512;2022-12-18T04:14:30;-8.60;99.90
44117;DHT22;29781;49.480;8.512;2022-12-18T04:17:01;-8.40;99.90
44117;DHT22;29781;49.480;8.512;2022-12-18T04:19:26;-8.20;99.90
44117;DHT22;29781;49.480;8.512;2022-12-18T04:21:52;-8.20;99.90
44117;DHT22;29781;49.480;8.512;2022-12-18T04:24:17;-8.10;99.90
44117;DHT22;29781;49.480;8.512;2022-12-18T04:26:43;-8.30;99.90
44117;DHT22;29781;49.480;8.512;2022-12-18T04:29:08;-8.50;99.90
44117;DHT22;29781;49.480;8.512;2022-12-18T04:31:34;-8.60;99.90
44117;DHT22;29781;49.480;8.512;2022-12-18T04:33:59;-8.70;99.90
44117;DHT22;29781;49.480;8.512;2022-12-18T04:36:25;-8.70;99.90
44117;DHT22;29781;49.480;8.512;2022-12-18T04:38:50;-8.70;99.90
44117;DHT22;29781;49.480;8.512;2022-12-18T04:41:16;-8.70;99.90
44117;DHT22;29781;49.480;8.512;2022-12-18T04:43:41;-8.70;99.90
44117;DHT22;29781;49.480;8.512;2022-12-18T04:46:07;-8.80;99.90
44117;DHT22;29781;49.480;8.512;2022-12-18T04:48:33;-8.70;99.90
44117;DHT22;29781;49.480;8.512;2022-12-18T04:50:59;-8.60;99.90
44117;DHT22;29781;49.480;8.512;2022-12-18T04:53:24;-8.60;99.90
44117;DHT22;29781;49.480;8.512;2022-12-18T04:55:50;-8.70;99.90
44117;DHT22;29781;49.480;8.512;2022-12-18T04:58:15;-8.70;99.90
44117;DHT22;29781;49.480;8.512;2022-12-18T05:00:41;-8.80;99.90
44117;DHT22;29781;49.480;8.512;2022-12-18T05:03:06;-8.80;99.90
44117;DHT22;29781;49.480;8.512;2022-12-18T05:05:34;-8.90;99.90
44117;DHT22;29781;49.480;8.512;2022-12-18T05:07:59;-8.90;99.90
44117;DHT22;29781;49.480;8.512;2022-12-18T05:10:25;-8.90;99.90
44117;DHT22;29781;49.480;8.512;2022-12-18T05:12:50;-8.90;99.90
44117;DHT22;29781;49.480;8.512;2022-12-18T05:15:29;-8.80;99.90
44117;DHT22;29781;49.480;8.512;2022-12-18T05:17:55;-8.80;99.90
44117;DHT22;29781;49.480;8.512;2022-12-18T05:20:20;-8.70;99.90
44117;DHT22;29781;49.480;8.512;2022-12-18T05:22:46;-8.70;99.90
44117;DHT22;29781;49.480;8.512;2022-12-18T05:25:11;-8.60;99.90
44117;DHT22;29781;49.480;8.512;2022-12-18T05:27:37;-8.60;99.90
44117;DHT22;29781;49.480;8.512;2022-12-18T05:30:02;-8.50;99.90
44117;DHT22;29781;49.480;8.512;2022-12-18T05:32:28;-8.20;99.90
44117;DHT22;29781;49.480;8.512;2022-12-18T05:34:54;-7.90;99.90
44117;DHT22;29781;49.480;8.512;2022-12-18T05:37:19;-7.60;99.90
44117;DHT22;29781;49.480;8.512;2022-12-18T05:39:46;-7.50;99.90
44117;DHT22;29781;49.480;8.512;2022-12-18T05:42:11;-7.60;99.90
44117;DHT22;29781;49.480;8.512;2022-12-18T05:44:37;-7.80;99.90
44117;DHT22;29781;49.480;8.512;2022-12-18T05:47:02;-8.00;99.90
44117;DHT22;29781;49.480;8.512;2022-12-18T05:49:27;-8.10;99.90
44117;DHT22;29781;49.480;8.512;2022-12-18T05:51:53;-8.20;99.90
44117;DHT22;29781;49.480;8.512;2022-12-18T05:54:18;-8.20;99.90
44117;DHT22;29781;49.480;8.512;2022-12-18T05:56:44;-8.30;99.90
44117;DHT22;29781;49.480;8.512;2022-12-18T05:59:10;-8.10;99.90
44117;DHT22;29781;49.480;8.512;2022-12-18T06:01:35;-7.80;99.90
44117;DHT22;29781;49.480;8.512;2022-12-18T06:04:01;-7.80;99.90
44117;DHT22;29781;49.480;8.512;2022-12-18T06:06:27;-8.00;99.90
44117;DHT22;29781;49.480;8.512;2022-12-18T06:08:53;-8.20;99.90
44117;DHT22;29781;49.480;8.512;2022-12-18T06:11:19;-8.20;99.90
44117;DHT22;29781;49.480;8.512;2022-12-18T06:13:45;-8.30;99.90
44117;DHT22;29781;49.480;8.512;2022-12-18T06:16:11;-8.20;99.90
44117;DHT22;29781;49.480;8.512;2022-12-18T06:18:37;-8.30;99.90
44117;DHT22;29781;49.480;8.512;2022-12-18T06:21:02;-8.50;99.90
44117;DHT22;29781;49.480;8.512;2022-12-18T06:23:28;-8.50;99.90
44117;DHT22;29781;49.480;8.512;2022-12-18T06:25:54;-8.50;99.90
44117;DHT22;29781;49.480;8.512;2022-12-18T06:28:19;-8.40;99.90
44117;DHT22;29781;49.480;8.512;2022-12-18T06:30:45;-8.30;99.90
44117;DHT22;29781;49.480;8.512;2022-12-18T06:33:11;-8.20;99.90
44117;DHT22;29781;49.480;8.512;2022-12-18T06:35:36;-8.20;99.90
44117;DHT22;29781;49.480;8.512;2022-12-18T06:38:02;-8.20;99.90
44117;DHT22;29781;49.480;8.512;2022-12-18T06:40:28;-8.20;99.90
44117;DHT22;29781;49.480;8.512;2022-12-18T06:42:53;-8.30;99.90
44117;DHT22;29781;49.480;8.512;2022-12-18T06:45:19;-8.40;99.90
44117;DHT22;29781;49.480;8.512;2022-12-18T06:47:45;-8.40;99.90
44117;DHT22;29781;49.480;8.512;2022-12-18T06:50:10;-8.30;99.90
44117;DHT22;29781;49.480;8.512;2022-12-18T06:52:36;-8.30;99.90
44117;DHT22;29781;49.480;8.512;2022-12-18T06:55:02;-8.30;99.90
44117;DHT22;29781;49.480;8.512;2022-12-18T06:57:27;-8.30;99.90
44117;DHT22;29781;49.480;8.512;2022-12-18T06:59:53;-8.40;99.90
44117;DHT22;29781;49.480;8.512;2022-12-18T07:02:18;-8.40;99.90
44117;DHT22;29781;49.480;8.512;2022-12-18T07:04:44;-8.40;99.90
44117;DHT22;29781;49.480;8.512;2022-12-18T07:07:09;-8.30;99.90
44117;DHT22;29781;49.480;8.512;2022-12-18T07:09:35;-8.30;99.90
44117;DHT22;29781;49.480;8.512;2022-12-18T07:12:00;-8.30;99.90
44117;DHT22;29781;49.480;8.512;2022-12-18T07:14:26;-8.40;99.90
44117;DHT22;29781;49.480;8.512;2022-12-18T07:16:51;-8.30;99.90
44117;DHT22;29781;49.480;8.512;2022-12-18T07:19:17;-8.30;99.90
44117;DHT22;29781;49.480;8.512;2022-12-18T07:21:42;-8.30;99.90
44117;DHT22;29781;49.480;8.512;2022-12-18T07:24:08;-8.20;99.90
44117;DHT22;29781;49.480;8.512;2022-12-18T07:26:33;-8.20;99.90
44117;DHT22;29781;49.480;8.512;2022-12-18T07:28:59;-8.20;99.90
44117;DHT22;29781;49.480;8.512;2022-12-18T07:31:25;-8.20;99.90
44117;DHT22;29781;49.480;8.512;2022-12-18T07:33:51;-8.20;99.90
44117;DHT22;29781;49.480;8.512;2022-12-18T07:36:16;-8.20;99.90
44117;DHT22;29781;49.480;8.512;2022-12-18T07:38:42;-8.20;99.90
44117;DHT22;29781;49.480;8.512;2022-12-18T07:41:09;-8.20;99.90
44117;DHT22;29781;49.480;8.512;2022-12-18T07:43:35;-8.20;99.90
44117;DHT22;29781;49.480;8.512;2022-12-18T07:46:01;-8.30;99.90
44117;DHT22;29781;49.480;8.512;2022-12-18T07:48:27;-8.30;99.90
44117;DHT22;29781;49.480;8.512;2022-12-18T07:50:53;-8.20;99.90
44117;DHT22;29781;49.480;8.512;2022-12-18T07:53:18;-8.20;99.90
44117;DHT22;29781;49.480;8.512;2022-12-18T07:55:44;-8.10;99.90
44117;DHT22;29781;49.480;8.512;2022-12-18T07:58:09;-8.00;99.90
44117;DHT22;29781;49.480;8.512;2022-12-18T08:00:35;-7.90;99.90
44117;DHT22;29781;49.480;8.512;2022-12-18T08:03:01;-8.00;99.90
44117;DHT22;29781;49.480;8.512;2022-12-18T08:05:26;-8.00;99.90
44117;DHT22;29781;49.480;8.512;2022-12-18T08:07:52;-8.10;99.90
44117;DHT22;29781;49.480;8.512;2022-12-18T08:10:18;-8.20;99.90
44117;DHT22;29781;49.480;8.512;2022-12-18T08:12:43;-8.10;99.90
44117;DHT22;29781;49.480;8.512;2022-12-18T08:15:09;-7.90;99.90
44117;DHT22;29781;49.480;8.512;2022-12-18T08:17:34;-7.60;99.90
44117;DHT22;29781;49.480;8.512;2022-12-18T08:20:00;-7.60;99.90
44117;DHT22;29781;49.480;8.512;2022-12-18T08:22:25;-7.90;99.90
44117;DHT22;29781;49.480;8.512;2022-12-18T08:24:51;-8.10;99.90
44117;DHT22;29781;49.480;8.512;2022-12-18T08:27:16;-8.10;99.90
44117;DHT22;29781;49.480;8.512;2022-12-18T08:29:42;-8.10;99.90
44117;DHT22;29781;49.480;8.512;2022-12-18T08:32:07;-8.10;99.90
44117;DHT22;29781;49.480;8.512;2022-12-18T08:34:33;-8.20;99.90
44117;DHT22;29781;49.480;8.512;2022-12-18T08:36:59;-8.20;99.90
44117;DHT22;29781;49.480;8.512;2022-12-18T08:39:24;-8.10;99.90
44117;DHT22;29781;49.480;8.512;2022-12-18T08:41:50;-8.10;99.90
44117;DHT22;29781;49.480;8.512;2022-12-18T08:44:34;-8.10;99.90
44117;DHT22;29781;49.480;8.512;2022-12-18T08:47:03;-8.10;99.90
44117;DHT22;29781;49.480;8.512;2022-12-18T08:49:28;-8.20;99.90
44117;DHT22;29781;49.480;8.512;2022-12-18T08:51:54;-8.30;99.90
44117;DHT22;29781;49.480;8.512;2022-12-18T08:54:20;-8.20;99.90
44117;DHT22;29781;49.480;8.512;2022-12-18T08:56:45;-8.20;99.90
44117;DHT22;29781;49.480;8.512;2022-12-18T08:59:11;-8.20;99.90
44117;DHT22;29781;49.480;8.512;2022-12-18T09:01:36;-8.20;99.90
44117;DHT22;29781;49.480;8.512;2022-12-18T09:04:02;-8.20;99.90
44117;DHT22;29781;49.480;8.512;2022-12-18T09:06:28;-8.10;99.90
44117;DHT22;29781;49.480;8.512;2022-12-18T09:08:53;-8.10;99.90
44117;DHT22;29781;49.480;8.512;2022-12-18T09:11:20;-8.10;99.90
44117;DHT22;29781;49.480;8.512;2022-12-18T09:13:46;-7.90;99.90
44117;DHT22;29781;49.480;8.512;2022-12-18T09:16:12;-7.80;99.90
44117;DHT22;29781;49.480;8.512;2022-12-18T09:18:37;-7.60;99.90
44117;DHT22;29781;49.480;8.512;2022-12-18T09:21:36;-7.40;99.90
44117;DHT22;29781;49.480;8.512;2022-12-18T09:23:55;-7.10;99.90
44117;DHT22;29781;49.480;8.512;2022-12-18T09:26:21;-6.80;99.90
44117;DHT22;29781;49.480;8.512;2022-12-18T09:28:47;-6.40;99.90
44117;DHT22;29781;49.480;8.512;2022-12-18T09:31:12;-6.20;99.90
44117;DHT22;29781;49.480;8.512;2022-12-18T09:33:38;-6.30;99.90
44117;DHT22;29781;49.480;8.512;2022-12-18T09:36:05;-6.20;99.90
44117;DHT22;29781;49.480;8.512;2022-12-18T09:38:31;-6.10;99.90
44117;DHT22;29781;49.480;8.512;2022-12-18T09:40:57;-5.70;99.90
44117;DHT22;29781;49.480;8.512;2022-12-18T09:44:09;-5.40;99.90
44117;DHT22;29781;49.480;8.512;2022-12-18T09:46:24;-5.20;99.90
44117;DHT22;29781;49.480;8.512;2022-12-18T09:48:51;-5.50;99.90
44117;DHT22;29781;49.480;8.512;2022-12-18T09:54:03;-5.60;99.90
44117;DHT22;29781;49.480;8.512;2022-12-18T09:56:29;-5.50;99.90
44117;DHT22;29781;49.480;8.512;2022-12-18T10:01:22;-4.90;99.90
44117;DHT22;29781;49.480;8.512;2022-12-18T10:03:48;-4.60;99.90
44117;DHT22;29781;49.480;8.512;2022-12-18T10:21:34;-5.70;99.90
44117;DHT22;29781;49.480;8.512;2022-12-18T10:24:14;-5.30;99.90
44117;DHT22;29781;49.480;8.512;2022-12-18T10:26:43;-5.10;99.90
44117;DHT22;29781;49.480;8.512;2022-12-18T10:29:13;-4.80;99.90
44117;DHT22;29781;49.480;8.512;2022-12-18T10:31:38;-4.80;99.90
44117;DHT22;29781;49.480;8.512;2022-12-18T10:34:07;-5.10;99.90
44117;DHT22;29781;49.480;8.512;2022-12-18T10:36:32;-5.30;99.90
44117;DHT22;29781;49.480;8.512;2022-12-18T10:41:42;-5.40;99.90
44117;DHT22;29781;49.480;8.512;2022-12-18T10:47:03;-5.30;99.90
44117;DHT22;29781;49.480;8.512;2022-12-18T10:49:30;-5.30;99.90
44117;DHT22;29781;49.480;8.512;2022-12-18T10:54:30;-5.10;99.90
44117;DHT22;29781;49.480;8.512;2022-12-18T10:59:51;-4.80;99.90
44117;DHT22;29781;49.480;8.512;2022-12-18T11:05:26;-4.60;99.90
44117;DHT22;29781;49.480;8.512;2022-12-18T11:07:52;-4.70;99.90
44117;DHT22;29781;49.480;8.512;2022-12-18T11:10:20;-4.80;99.90
44117;DHT22;29781;49.480;8.512;2022-12-18T11:12:45;-4.70;99.90
44117;DHT22;29781;49.480;8.512;2022-12-18T11:15:21;-4.70;99.90
44117;DHT22;29781;49.480;8.512;2022-12-18T11:17:49;-4.80;99.90
44117;DHT22;29781;49.480;8.512;2022-12-18T11:22:44;-4.30;99.90
44117;DHT22;29781;49.480;8.512;2022-12-18T11:25:19;-3.90;99.90
44117;DHT22;29781;49.480;8.512;2022-12-18T11:27:49;-4.00;99.90
44117;DHT22;29781;49.480;8.512;2022-12-18T11:32:58;-4.30;99.90
44117;DHT22;29781;49.480;8.512;2022-12-18T11:35:39;-4.30;99.90
44117;DHT22;29781;49.480;8.512;2022-12-18T11:40:54;-4.30;99.90
44117;DHT22;29781;49.480;8.512;2022-12-18T11:43:42;-4.20;99.90
44117;DHT22;29781;49.480;8.512;2022-12-18T11:46:07;-4.00;99.90
44117;DHT22;29781;49.480;8.512;2022-12-18T11:48:38;-3.80;99.90
44117;DHT22;29781;49.480;8.512;2022-12-18T11:51:09;-3.80;99.90
44117;DHT22;29781;49.480;8.512;2022-12-18T11:53:37;-3.80;99.90
44117;DHT22;29781;49.480;8.512;2022-12-18T12:01:19;-2.60;99.90
44117;DHT22;29781;49.480;8.512;2022-12-18T12:04:00;-2.00;99.90
44117;DHT22;29781;49.480;8.512;2022-12-18T12:15:38;-3.70;99.90
44117;DHT22;29781;49.480;8.512;2022-12-18T12:37:25;-3.60;99.90
44117;DHT22;29781;49.480;8.512;2022-12-18T12:39:54;-3.30;99.90
44117;DHT22;29781;49.480;8.512;2022-12-18T12:42:23;-3.30;99.90
44117;DHT22;29781;49.480;8.512;2022-12-18T12:45:14;-3.30;99.90
44117;DHT22;29781;49.480;8.512;2022-12-18T12:47:41;-3.50;99.90
44117;DHT22;29781;49.480;8.512;2022-12-18T12:50:13;-3.70;99.90
44117;DHT22;29781;49.480;8.512;2022-12-18T12:52:42;-3.90;99.90
44117;DHT22;29781;49.480;8.512;2022-12-18T12:55:13;-4.00;99.90
44117;DHT22;29781;49.480;8.512;2022-12-18T12:57:40;-4.10;99.90
44117;DHT22;29781;49.480;8.512;2022-12-18T13:00:12;-4.00;99.90
44117;DHT22;29781;49.480;8.512;2022-12-18T13:05:41;-3.90;99.90
44117;DHT22;29781;49.480;8.512;2022-12-18T13:08:09;-3.90;99.90
44117;DHT22;29781;49.480;8.512;2022-12-18T13:10:36;-3.90;99.90
44117;DHT22;29781;49.480;8.512;2022-12-18T13:21:05;-3.90;99.90
44117;DHT22;29781;49.480;8.512;2022-12-18T13:25:57;-4.00;99.90
44117;DHT22;29781;49.480;8.512;2022-12-18T13:31:08;-3.90;99.90
44117;DHT22;29781;49.480;8.512;2022-12-18T13:33:38;-3.80;99.90
44117;DHT22;29781;49.480;8.512;2022-12-18T13:38:37;-3.90;99.90
44117;DHT22;29781;49.480;8.512;2022-12-18T13:43:36;-3.90;99.90
44117;DHT22;29781;49.480;8.512;2022-12-18T13:46:46;-3.90;99.90
44117;DHT22;29781;49.480;8.512;2022-12-18T13:48:54;-3.80;99.90
44117;DHT22;29781;49.480;8.512;2022-12-18T13:51:21;-3.70;99.90
44117;DHT22;29781;49.480;8.512;2022-12-18T13:54:06;-3.70;99.90
44117;DHT22;29781;49.480;8.512;2022-12-18T13:56:42;-3.70;99.90
44117;DHT22;29781;49.480;8.512;2022-12-18T13:59:21;-3.70;99.90
44117;DHT22;29781;49.480;8.512;2022-12-18T14:01:50;-3.70;99.90
44117;DHT22;29781;49.480;8.512;2022-12-18T14:06:55;-3.80;99.90
44117;DHT22;29781;49.480;8.512;2022-12-18T14:09:23;-3.70;99.90
44117;DHT22;29781;49.480;8.512;2022-12-18T14:11:50;-3.80;99.90
44117;DHT22;29781;49.480;8.512;2022-12-18T14:14:16;-3.90;99.90
44117;DHT22;29781;49.480;8.512;2022-12-18T14:16:42;-3.90;99.90
44117;DHT22;29781;49.480;8.512;2022-12-18T14:19:10;-3.90;99.90
44117;DHT22;29781;49.480;8.512;2022-12-18T14:21:37;-3.90;99.90
44117;DHT22;29781;49.480;8.512;2022-12-18T14:26:31;-3.70;99.90
44117;DHT22;29781;49.480;8.512;2022-12-18T14:28:59;-3.80;99.90
44117;DHT22;29781;49.480;8.512;2022-12-18T14:31:29;-3.80;99.90
44117;DHT22;29781;49.480;8.512;2022-12-18T14:33:55;-3.70;99.90
44117;DHT22;29781;49.480;8.512;2022-12-18T14:36:22;-3.70;99.90
44117;DHT22;29781;49.480;8.512;2022-12-18T14:38:52;-3.50;99.90
44117;DHT22;29781;49.480;8.512;2022-12-18T14:41:19;-3.30;99.90
44117;DHT22;29781;49.480;8.512;2022-12-18T14:43:45;-3.20;99.90
44117;DHT22;29781;49.480;8.512;2022-12-18T14:48:55;-3.20;99.90
44117;DHT22;29781;49.480;8.512;2022-12-18T14:51:22;-3.40;99.90
44117;DHT22;29781;49.480;8.512;2022-12-18T14:53:55;-3.40;99.90
44117;DHT22;29781;49.480;8.512;2022-12-18T14:56:25;-3.60;99.90
44117;DHT22;29781;49.480;8.512;2022-12-18T14:58:53;-3.60;99.90
44117;DHT22;29781;49.480;8.512;2022-12-18T15:01:20;-3.70;99.90
44117;DHT22;29781;49.480;8.512;2022-12-18T15:03:48;-3.70;99.90
44117;DHT22;29781;49.480;8.512;2022-12-18T15:06:21;-3.70;99.90
44117;DHT22;29781;49.480;8.512;2022-12-18T15:08:49;-3.70;99.90
44117;DHT22;29781;49.480;8.512;2022-12-18T15:17:21;-3.70;99.90
44117;DHT22;29781;49.480;8.512;2022-12-18T15:19:48;-3.80;99.90
44117;DHT22;29781;49.480;8.512;2022-12-18T15:22:21;-3.80;99.90
44117;DHT22;29781;49.480;8.512;2022-12-18T15:24:47;-3.90;99.90
44117;DHT22;29781;49.480;8.512;2022-12-18T15:27:23;-3.80;99.90
44117;DHT22;29781;49.480;8.512;2022-12-18T15:32:33;-3.90;99.90
44117;DHT22;29781;49.480;8.512;2022-12-18T15:35:18;-4.00;99.90
44117;DHT22;29781;49.480;8.512;2022-12-18T15:37:44;-4.00;99.90
44117;DHT22;29781;49.480;8.512;2022-12-18T15:40:14;-4.00;99.90
44117;DHT22;29781;49.480;8.512;2022-12-18T15:42:39;-4.00;99.90
44117;DHT22;29781;49.480;8.512;2022-12-18T15:45:23;-4.00;99.90
44117;DHT22;29781;49.480;8.512;2022-12-18T15:47:49;-4.10;99.90
44117;DHT22;29781;49.480;8.512;2022-12-18T15:50:14;-4.10;99.90
44117;DHT22;29781;49.480;8.512;2022-12-18T15:52:41;-4.10;99.90
44117;DHT22;29781;49.480;8.512;2022-12-18T15:55:11;-4.20;99.90
44117;DHT22;29781;49.480;8.512;2022-12-18T15:57:56;-4.20;99.90
44117;DHT22;29781;49.480;8.512;2022-12-18T16:00:22;-4.30;99.90
44117;DHT22;29781;49.480;8.512;2022-12-18T16:02:47;-4.30;99.90
44117;DHT22;29781;49.480;8.512;2022-12-18T16:05:13;-4.30;99.90
44117;DHT22;29781;49.480;8.512;2022-12-18T16:07:39;-4.20;99.90
44117;DHT22;29781;49.480;8.512;2022-12-18T16:10:05;-4.20;99.90
44117;DHT22;29781;49.480;8.512;2022-12-18T16:12:31;-4.30;99.90
44117;DHT22;29781;49.480;8.512;2022-12-18T16:14:56;-4.30;99.90
44117;DHT22;29781;49.480;8.512;2022-12-18T16:17:22;-4.40;99.90
44117;DHT22;29781;49.480;8.512;2022-12-18T16:19:47;-4.30;99.90
44117;DHT22;29781;49.480;8.512;2022-12-18T16:22:22;-4.30;99.90
44117;DHT22;29781;49.480;8.512;2022-12-18T16:24:49;-4.30;99.90
44117;DHT22;29781;49.480;8.512;2022-12-18T16:27:14;-4.40;99.90
44117;DHT22;29781;49.480;8.512;2022-12-18T16:29:39;-4.40;99.90
44117;DHT22;29781;49.480;8.512;2022-12-18T16:32:05;-4.40;99.90
44117;DHT22;29781;49.480;8.512;2022-12-18T16:34:31;-4.40;99.90
44117;DHT22;29781;49.480;8.512;2022-12-18T16:36:58;-4.40;99.90
44117;DHT22;29781;49.480;8.512;2022-12-18T16:39:25;-4.50;99.90
44117;DHT22;29781;49.480;8.512;2022-12-18T16:41:50;-4.50;99.90
44117;DHT22;29781;49.480;8.512;2022-12-18T16:44:16;-4.50;99.90
44117;DHT22;29781;49.480;8.512;2022-12-18T16:46:42;-4.50;99.90
44117;DHT22;29781;49.480;8.512;2022-12-18T16:49:10;-4.60;99.90
44117;DHT22;29781;49.480;8.512;2022-12-18T16:51:36;-4.50;99.90
44117;DHT22;29781;49.480;8.512;2022-12-18T16:54:02;-4.40;99.90
44117;DHT22;29781;49.480;8.512;2022-12-18T16:56:27;-4.20;99.90
44117;DHT22;29781;49.480;8.512;2022-12-18T16:58:53;-4.00;99.90
44117;DHT22;29781;49.480;8.512;2022-12-18T17:01:19;-3.90;99.90
44117;DHT22;29781;49.480;8.512;2022-12-18T17:04:00;-4.00;99.90
44117;DHT22;29781;49.480;8.512;2022-12-18T17:06:27;-4.20;99.90
44117;DHT22;29781;49.480;8.512;2022-12-18T17:08:56;-4.20;99.90
44117;DHT22;29781;49.480;8.512;2022-12-18T17:11:22;-4.30;99.90
44117;DHT22;29781;49.480;8.512;2022-12-18T17:13:48;-4.40;99.90
44117;DHT22;29781;49.480;8.512;2022-12-18T17:16:13;-4.40;99.90
44117;DHT22;29781;49.480;8.512;2022-12-18T17:18:39;-4.40;99.90
44117;DHT22;29781;49.480;8.512;2022-12-18T17:21:05;-4.30;99.90
44117;DHT22;29781;49.480;8.512;2022-12-18T17:23:31;-4.20;99.90
44117;DHT22;29781;49.480;8.512;2022-12-18T17:25:57;-4.30;99.90
44117;DHT22;29781;49.480;8.512;2022-12-18T17:28:23;-4.10;99.90
44117;DHT22;29781;49.480;8.512;2022-12-18T17:30:50;-4.20;99.90
44117;DHT22;29781;49.480;8.512;2022-12-18T17:33:16;-4.10;99.90
44117;DHT22;29781;49.480;8.512;2022-12-18T17:35:42;-4.20;99.90
44117;DHT22;29781;49.480;8.512;2022-12-18T17:38:08;-4.30;99.90
44117;DHT22;29781;49.480;8.512;2022-12-18T17:40:33;-4.30;99.90
44117;DHT22;29781;49.480;8.512;2022-12-18T17:42:59;-4.40;99.90
44117;DHT22;29781;49.480;8.512;2022-12-18T17:45:24;-4.40;99.90
44117;DHT22;29781;49.480;8.512;2022-12-18T17:47:50;-4.40;99.90
44117;DHT22;29781;49.480;8.512;2022-12-18T17:50:15;-4.40;99.90